Eri Eru — JL6487 — position and weather

sailwx.info

Track history (hours):
 
Tides and Currents Weather Stations Pressure Air Temp Water Temp Dewpoint Dewpoint Depression Visibility Wind Speed Wind Dir Waves Ship Positions

Eri Eru

Last reported at 2018-Apr-21 19:00 UTC. Time now 2018-Apr-22 06:21 UTC.
Position N 34°33' E 138°36'.

Length 77 m; draft 3.6 m.

Type: Cargo ship. MMSI: 431501684.

Date/timePositionNaut miles runAvg speedWind from/ knotsBaromVisibWave heightAir tempDewpointWater temp
2018-Apr-21 19:00N 34°33' E 138°36'1112.5
2018-Apr-21 18:08N 34°35' E 138°49'411.4
2018-Apr-21 17:44N 34°35' E 138°55'210.2
2018-Apr-21 17:30N 34°36' E 138°57'612.2
2018-Apr-21 17:00N 34°41' E 139°02'711.5
2018-Apr-21 16:22N 34°47' E 139°07'1012.3
2018-Apr-21 15:34N 34°54' E 139°15'112.2
2018-Apr-21 15:28N 34°55' E 139°17'511.7
2018-Apr-21 15:00N 34°57' E 139°23'611.8
2018-Apr-21 14:30N 35°00' E 139°29'611.8
2018-Apr-21 14:00N 35°03' E 139°35'611.6
2018-Apr-21 13:30N 35°07' E 139°41'611.4
2018-Apr-21 13:00N 35°11' E 139°45'511.1
2018-Apr-21 12:30N 35°17' E 139°45'612.3
2018-Apr-21 12:00N 35°22' E 139°42'611.6
2018-Apr-21 11:30N 35°27' E 139°46'5 9.1
2018-Apr-21 11:00N 35°32' E 139°47'0 0.1
2018-Apr-21 10:25N 35°32' E 139°47'0 0.0
2018-Apr-21 09:37N 35°32' E 139°47'0 0.0
2018-Apr-21 09:19N 35°32' E 139°47'0 0.0
2018-Apr-21 08:55N 35°32' E 139°47'0 0.0
2018-Apr-21 08:13N 35°32' E 139°47'0 0.0
2018-Apr-21 07:31N 35°32' E 139°47'0 0.0
2018-Apr-21 07:19N 35°32' E 139°47'0 0.0
2018-Apr-21 06:55N 35°32' E 139°47'0 0.0
2018-Apr-21 06:28N 35°32' E 139°47'0 0.0
2018-Apr-21 05:55N 35°32' E 139°47'0 0.0
2018-Apr-21 05:22N 35°32' E 139°47'0 0.0
2018-Apr-21 04:55N 35°32' E 139°47'0 0.0
2018-Apr-21 04:19N 35°32' E 139°47'0 0.0
2018-Apr-21 03:55N 35°32' E 139°47'0 0.0
2018-Apr-21 03:19N 35°32' E 139°47'0 0.0
2018-Apr-21 02:55N 35°32' E 139°47'0 0.0
2018-Apr-21 02:25N 35°32' E 139°47'0 0.0
2018-Apr-21 01:55N 35°32' E 139°47'0 0.0
2018-Apr-21 01:28N 35°32' E 139°47'0 0.0
2018-Apr-21 00:58N 35°32' E 139°47'0 0.0
2018-Apr-21 00:25N 35°32' E 139°47'0 0.0
2018-Apr-20 23:58N 35°32' E 139°47'0 0.0
2018-Apr-20 23:28N 35°32' E 139°47'0 0.0
2018-Apr-20 22:52N 35°32' E 139°47'0 0.0
2018-Apr-20 22:30N 35°32' E 139°47'3 5.3
2018-Apr-20 22:00N 35°29' E 139°48'0 0.8
2018-Apr-20 21:29N 35°29' E 139°48'0 0.0
2018-Apr-20 20:59N 35°29' E 139°48'0 0.0
2018-Apr-20 20:29N 35°29' E 139°48'0 0.0
2018-Apr-20 19:56N 35°29' E 139°48'0 0.0
2018-Apr-20 19:29N 35°29' E 139°48'0 0.1
2018-Apr-20 18:59N 35°29' E 139°48'0 0.1
2018-Apr-20 18:29N 35°29' E 139°48'0 0.0
2018-Apr-20 17:59N 35°29' E 139°48'0 0.0
2018-Apr-20 17:29N 35°29' E 139°48'0 0.2
2018-Apr-20 17:00N 35°28' E 139°48'612.1
2018-Apr-20 16:30N 35°23' E 139°46'611.2
2018-Apr-20 16:00N 35°17' E 139°45'611.7
2018-Apr-20 15:30N 35°11' E 139°47'612.6
2018-Apr-20 15:00N 35°05' E 139°45'612.3
2018-Apr-20 14:30N 35°01' E 139°39'712.8
2018-Apr-20 13:59N 34°57' E 139°33'913.0
2018-Apr-20 13:18N 34°52' E 139°24'613.3
2018-Apr-20 12:48N 34°48' E 139°17'513.8
2018-Apr-20 12:26N 34°45' E 139°12'613.7
2018-Apr-20 12:00N 34°42' E 139°07'713.0
2018-Apr-20 11:26N 34°37' E 138°59'812.1
2018-Apr-20 10:48N 34°34' E 138°51'513.4
2018-Apr-20 10:28N 34°34' E 138°46'613.3
2018-Apr-20 10:00N 34°33' E 138°38'713.5
2018-Apr-20 09:30N 34°32' E 138°30'713.1
2018-Apr-20 09:00N 34°32' E 138°22'613.0
2018-Apr-20 08:30N 34°31' E 138°14'713.2
2018-Apr-20 07:57N 34°29' E 138°06'15510.8
2018-Apr-19 17:36N 33°48' E 135°05'312.5
2018-Apr-19 17:24N 33°49' E 135°03'613.2
2018-Apr-19 16:58N 33°54' E 134°59'613.5
2018-Apr-19 16:30N 33°59' E 134°54'613.3
2018-Apr-19 16:00N 34°04' E 134°49'713.2
2018-Apr-19 15:30N 34°09' E 134°44'612.9
2018-Apr-19 15:00N 34°14' E 134°39'612.6
2018-Apr-19 14:30N 34°17' E 134°33'612.6
2018-Apr-19 14:00N 34°20' E 134°26'612.5
2018-Apr-19 13:29N 34°22' E 134°19'611.3
2018-Apr-19 13:00N 34°24' E 134°12'  
2018-Apr-17 00:52N 34°22' E 134°21'513.1
2018-Apr-17 00:29N 34°20' E 134°27'713.2
2018-Apr-16 23:56N 34°17' E 134°35'613.2
2018-Apr-16 23:30N 34°13' E 134°40'713.5
2018-Apr-16 23:00N 34°08' E 134°45'612.8
2018-Apr-16 22:30N 34°04' E 134°51'612.9
2018-Apr-16 22:00N 33°59' E 134°56'612.8
2018-Apr-16 21:30N 33°53' E 135°00'17810.8
2018-Apr-16 05:06N 34°34' E 138°29'1612.3
2018-Apr-16 03:48N 34°35' E 138°49'411.8
2018-Apr-16 03:29N 34°35' E 138°53'511.1
2018-Apr-16 03:00N 34°38' E 138°59'712.0
2018-Apr-16 02:27N 34°43' E 139°04'2512.1
2018-Apr-16 00:24N 34°59' E 139°26'711.6
2018-Apr-15 23:50N 35°03' E 139°33'412.6
2018-Apr-15 23:30N 35°05' E 139°38'612.6
2018-Apr-15 23:00N 35°09' E 139°43'612.8
2018-Apr-15 22:30N 35°15' E 139°46'713.2
2018-Apr-15 22:00N 35°21' E 139°42'612.4
2018-Apr-15 21:30N 35°27' E 139°46'5 4.4
2018-Apr-15 20:21N 35°32' E 139°47'0 0.0
2018-Apr-15 18:27N 35°32' E 139°47'0 0.0
2018-Apr-15 16:33N 35°32' E 139°47'0 0.0
2018-Apr-15 16:27N 35°32' E 139°47'0 0.0
2018-Apr-15 15:45N 35°32' E 139°47'0 0.0
2018-Apr-15 15:21N 35°32' E 139°47'0 0.0
2018-Apr-15 14:27N 35°32' E 139°47'0 0.0
2018-Apr-15 13:09N 35°32' E 139°47'0 0.0
2018-Apr-15 12:45N 35°32' E 139°47'0 0.0
2018-Apr-15 12:27N 35°32' E 139°47'0 0.0
2018-Apr-15 11:57N 35°32' E 139°47'0 0.0
2018-Apr-15 10:51N 35°32' E 139°47'0 0.0
2018-Apr-15 10:21N 35°32' E 139°47'0 0.0
2018-Apr-15 09:57N 35°32' E 139°47'0 0.0
2018-Apr-15 08:45N 35°32' E 139°47'0 0.0
2018-Apr-15 08:30N 35°32' E 139°47'0 0.0
2018-Apr-15 08:00N 35°32' E 139°47'0 0.0
2018-Apr-15 07:09N 35°32' E 139°47'0 0.0
2018-Apr-15 07:00N 35°32' E 139°47'0 0.0
2018-Apr-15 05:03N 35°32' E 139°47'0 0.0
2018-Apr-15 04:57N 35°32' E 139°47'0 0.0
2018-Apr-15 04:27N 35°32' E 139°47'0 0.0
2018-Apr-15 03:45N 35°32' E 139°47'0 0.0
2018-Apr-15 03:27N 35°32' E 139°47'0 0.0
2018-Apr-15 02:51N 35°32' E 139°47'0 0.0
2018-Apr-15 02:27N 35°32' E 139°47'0 0.0
2018-Apr-15 01:39N 35°32' E 139°47'0 0.0
2018-Apr-15 01:21N 35°32' E 139°47'0 0.0
2018-Apr-15 00:57N 35°32' E 139°47'0 0.0
2018-Apr-15 00:27N 35°32' E 139°47'0 0.0
2018-Apr-14 23:45N 35°32' E 139°47'0 0.0
2018-Apr-14 21:09N 35°32' E 139°47'0 0.0
2018-Apr-14 20:51N 35°32' E 139°47'0 0.0
2018-Apr-14 20:21N 35°32' E 139°47'0 0.0
2018-Apr-14 19:51N 35°32' E 139°47'0 0.0
2018-Apr-14 19:27N 35°32' E 139°47'0 0.0
2018-Apr-14 17:03N 35°32' E 139°47'0 0.0
2018-Apr-14 16:51N 35°32' E 139°47'0 0.0
2018-Apr-14 16:15N 35°32' E 139°47'0 0.0
2018-Apr-14 15:57N 35°32' E 139°47'0 0.0
2018-Apr-14 14:45N 35°32' E 139°47'0 0.0
2018-Apr-14 14:15N 35°32' E 139°47'0 0.0
2018-Apr-14 13:39N 35°32' E 139°47'0 0.0
2018-Apr-14 13:21N 35°32' E 139°47'0 0.0
2018-Apr-14 12:51N 35°32' E 139°47'0 0.0
2018-Apr-14 11:39N 35°32' E 139°47'0 0.0
2018-Apr-14 11:21N 35°32' E 139°47'0 0.0
2018-Apr-14 09:51N 35°32' E 139°47'0 0.0
2018-Apr-14 08:51N 35°32' E 139°47'0 0.0
2018-Apr-14 08:30N 35°32' E 139°47'0 0.0
2018-Apr-14 08:00N 35°32' E 139°47'0 0.0
2018-Apr-14 07:30N 35°32' E 139°47'0 0.0
2018-Apr-14 07:00N 35°32' E 139°47'0 0.0
2018-Apr-14 06:27N 35°32' E 139°47'0 0.0
2018-Apr-14 06:00N 35°32' E 139°47'0 0.0
2018-Apr-14 05:27N 35°32' E 139°47'0 0.0
2018-Apr-14 04:51N 35°32' E 139°47'0 0.0
2018-Apr-14 04:27N 35°32' E 139°47'0 0.0
2018-Apr-14 03:51N 35°32' E 139°47'0 0.0
2018-Apr-14 03:21N 35°32' E 139°47'0 0.0
2018-Apr-14 02:33N 35°32' E 139°47'0 0.0
2018-Apr-14 02:27N 35°32' E 139°47'0 0.0
2018-Apr-14 02:00N 35°32' E 139°47'0 0.0
2018-Apr-14 01:27N 35°32' E 139°47'0 0.0
2018-Apr-14 00:57N 35°32' E 139°47'0 0.0
2018-Apr-14 00:24N 35°32' E 139°47'0 0.0
2018-Apr-14 00:00N 35°32' E 139°47'0 0.0
2018-Apr-13 23:27N 35°32' E 139°47'0 0.0
2018-Apr-13 22:57N 35°32' E 139°47'0 0.0
2018-Apr-13 21:27N 35°32' E 139°47'0 0.0
2018-Apr-13 20:57N 35°32' E 139°47'0 0.0
2018-Apr-13 19:57N 35°32' E 139°47'0 0.0
2018-Apr-13 18:27N 35°32' E 139°47'0 0.0
2018-Apr-13 17:57N 35°32' E 139°47'0 0.0
2018-Apr-13 16:45N 35°32' E 139°47'0 0.0
2018-Apr-13 16:27N 35°32' E 139°47'0 0.0
2018-Apr-13 15:57N 35°32' E 139°47'0 0.0
2018-Apr-13 15:27N 35°32' E 139°47'0 0.0
2018-Apr-13 14:21N 35°32' E 139°47'0 0.0
2018-Apr-13 13:57N 35°32' E 139°47'0 0.0
2018-Apr-13 13:09N 35°32' E 139°47'0 0.0
2018-Apr-13 12:33N 35°32' E 139°47'0 0.0
2018-Apr-13 12:09N 35°32' E 139°47'0 0.0
2018-Apr-13 11:51N 35°32' E 139°47'0 0.0
2018-Apr-13 08:45N 35°32' E 139°47'0 0.0
2018-Apr-13 08:27N 35°32' E 139°47'0 0.0
2018-Apr-13 07:51N 35°32' E 139°47'0 0.0
2018-Apr-13 06:51N 35°32' E 139°47'0 0.0
2018-Apr-13 06:00N 35°32' E 139°47'0 0.8
2018-Apr-13 05:31N 35°31' E 139°48'2 4.1
2018-Apr-13 05:01N 35°29' E 139°48'1 1.1
2018-Apr-13 04:30N 35°29' E 139°48'0 0.0
2018-Apr-13 03:57N 35°29' E 139°48'1 2.9
2018-Apr-13 03:30N 35°27' E 139°48'612.3
2018-Apr-13 03:00N 35°22' E 139°45'611.4
2018-Apr-13 02:30N 35°16' E 139°46'611.9
2018-Apr-13 02:00N 35°10' E 139°46'611.8
2018-Apr-13 01:31N 35°04' E 139°44'611.6
2018-Apr-13 00:59N 35°00' E 139°39'611.8
2018-Apr-13 00:28N 34°57' E 139°33'1513.2
2018-Apr-12 23:17N 34°48' E 139°17'513.4
2018-Apr-12 22:54N 34°45' E 139°12'613.8
2018-Apr-12 22:30N 34°42' E 139°07'713.2
2018-Apr-12 21:57N 34°37' E 138°60'813.8
2018-Apr-12 21:23N 34°34' E 138°51'613.3
2018-Apr-12 20:55N 34°34' E 138°43'513.1
2018-Apr-12 20:30N 34°33' E 138°37'713.2
2018-Apr-12 20:00N 34°33' E 138°29'612.8
2018-Apr-12 19:30N 34°33' E 138°21'612.9
2018-Apr-12 19:00N 34°33' E 138°13'713.4
2018-Apr-12 18:29N 34°32' E 138°05'15711.0
2018-Apr-12 04:08N 33°44' E 135°04'312.9
2018-Apr-12 03:56N 33°46' E 135°02'712.6
2018-Apr-12 03:22N 33°50' E 134°55'612.8
2018-Apr-12 02:55N 33°54' E 134°49'513.0
2018-Apr-12 02:30N 33°57' E 134°45'713.0
2018-Apr-12 01:59N 34°01' E 134°38'1 1.7
2018-Apr-12 01:24N 34°02' E 134°37'0 0.1
2018-Apr-12 01:00N 34°02' E 134°37'0 0.0
2018-Apr-12 00:30N 34°02' E 134°37'0 0.0
2018-Apr-11 23:48N 34°02' E 134°37'0 0.2
2018-Apr-11 23:30N 34°02' E 134°37'0 0.0
2018-Apr-11 22:42N 34°02' E 134°37'0 0.0
2018-Apr-11 22:30N 34°02' E 134°37'0 0.0
2018-Apr-11 21:48N 34°02' E 134°37'0 0.0
2018-Apr-11 21:30N 34°02' E 134°37'0 0.1
2018-Apr-11 20:54N 34°02' E 134°37'0 0.1
2018-Apr-11 20:18N 34°02' E 134°37'0 0.0
2018-Apr-11 20:00N 34°02' E 134°37'0 0.0
2018-Apr-11 19:30N 34°02' E 134°37'  
Track history (hours):
 
Tides and Currents Weather Stations Pressure Air Temp Water Temp Dewpoint Dewpoint Depression Visibility Wind Speed Wind Dir Waves Ship Positions

Eri Eru

Last reported at 2018-Apr-21 19:00 UTC. Time now 2018-Apr-22 06:21 UTC.
Position N 34°33' E 138°36'.

Length 77 m; draft 3.6 m.

Type: Cargo ship. MMSI: 431501684.

Date/timePositionNaut miles runAvg speedWind from/ knotsBaromVisibWave heightAir tempDewpointWater temp
2018-Apr-21 19:00N 34°33' E 138°36'1112.5
2018-Apr-21 18:08N 34°35' E 138°49'411.4
2018-Apr-21 17:44N 34°35' E 138°55'210.2
2018-Apr-21 17:30N 34°36' E 138°57'612.2
2018-Apr-21 17:00N 34°41' E 139°02'711.5
2018-Apr-21 16:22N 34°47' E 139°07'1012.3
2018-Apr-21 15:34N 34°54' E 139°15'112.2
2018-Apr-21 15:28N 34°55' E 139°17'511.7
2018-Apr-21 15:00N 34°57' E 139°23'611.8
2018-Apr-21 14:30N 35°00' E 139°29'611.8
2018-Apr-21 14:00N 35°03' E 139°35'611.6
2018-Apr-21 13:30N 35°07' E 139°41'611.4
2018-Apr-21 13:00N 35°11' E 139°45'511.1
2018-Apr-21 12:30N 35°17' E 139°45'612.3
2018-Apr-21 12:00N 35°22' E 139°42'611.6
2018-Apr-21 11:30N 35°27' E 139°46'5 9.1
2018-Apr-21 11:00N 35°32' E 139°47'0 0.1
2018-Apr-21 10:25N 35°32' E 139°47'0 0.0
2018-Apr-21 09:37N 35°32' E 139°47'0 0.0
2018-Apr-21 09:19N 35°32' E 139°47'0 0.0
2018-Apr-21 08:55N 35°32' E 139°47'0 0.0
2018-Apr-21 08:13N 35°32' E 139°47'0 0.0
2018-Apr-21 07:31N 35°32' E 139°47'0 0.0
2018-Apr-21 07:19N 35°32' E 139°47'0 0.0
2018-Apr-21 06:55N 35°32' E 139°47'0 0.0
2018-Apr-21 06:28N 35°32' E 139°47'0 0.0
2018-Apr-21 05:55N 35°32' E 139°47'0 0.0
2018-Apr-21 05:22N 35°32' E 139°47'0 0.0
2018-Apr-21 04:55N 35°32' E 139°47'0 0.0
2018-Apr-21 04:19N 35°32' E 139°47'0 0.0
2018-Apr-21 03:55N 35°32' E 139°47'0 0.0
2018-Apr-21 03:19N 35°32' E 139°47'0 0.0
2018-Apr-21 02:55N 35°32' E 139°47'0 0.0
2018-Apr-21 02:25N 35°32' E 139°47'0 0.0
2018-Apr-21 01:55N 35°32' E 139°47'0 0.0
2018-Apr-21 01:28N 35°32' E 139°47'0 0.0
2018-Apr-21 00:58N 35°32' E 139°47'0 0.0
2018-Apr-21 00:25N 35°32' E 139°47'0 0.0
2018-Apr-20 23:58N 35°32' E 139°47'0 0.0
2018-Apr-20 23:28N 35°32' E 139°47'0 0.0
2018-Apr-20 22:52N 35°32' E 139°47'0 0.0
2018-Apr-20 22:30N 35°32' E 139°47'3 5.3
2018-Apr-20 22:00N 35°29' E 139°48'0 0.8
2018-Apr-20 21:29N 35°29' E 139°48'0 0.0
2018-Apr-20 20:59N 35°29' E 139°48'0 0.0
2018-Apr-20 20:29N 35°29' E 139°48'0 0.0
2018-Apr-20 19:56N 35°29' E 139°48'0 0.0
2018-Apr-20 19:29N 35°29' E 139°48'0 0.1
2018-Apr-20 18:59N 35°29' E 139°48'0 0.1
2018-Apr-20 18:29N 35°29' E 139°48'0 0.0
2018-Apr-20 17:59N 35°29' E 139°48'0 0.0
2018-Apr-20 17:29N 35°29' E 139°48'0 0.2
2018-Apr-20 17:00N 35°28' E 139°48'612.1
2018-Apr-20 16:30N 35°23' E 139°46'611.2
2018-Apr-20 16:00N 35°17' E 139°45'611.7
2018-Apr-20 15:30N 35°11' E 139°47'612.6
2018-Apr-20 15:00N 35°05' E 139°45'612.3
2018-Apr-20 14:30N 35°01' E 139°39'712.8
2018-Apr-20 13:59N 34°57' E 139°33'913.0
2018-Apr-20 13:18N 34°52' E 139°24'613.3
2018-Apr-20 12:48N 34°48' E 139°17'513.8
2018-Apr-20 12:26N 34°45' E 139°12'613.7
2018-Apr-20 12:00N 34°42' E 139°07'713.0
2018-Apr-20 11:26N 34°37' E 138°59'812.1
2018-Apr-20 10:48N 34°34' E 138°51'513.4
2018-Apr-20 10:28N 34°34' E 138°46'613.3
2018-Apr-20 10:00N 34°33' E 138°38'713.5
2018-Apr-20 09:30N 34°32' E 138°30'713.1
2018-Apr-20 09:00N 34°32' E 138°22'613.0
2018-Apr-20 08:30N 34°31' E 138°14'713.2
2018-Apr-20 07:57N 34°29' E 138°06'15510.8
2018-Apr-19 17:36N 33°48' E 135°05'312.5
2018-Apr-19 17:24N 33°49' E 135°03'613.2
2018-Apr-19 16:58N 33°54' E 134°59'613.5
2018-Apr-19 16:30N 33°59' E 134°54'613.3
2018-Apr-19 16:00N 34°04' E 134°49'713.2
2018-Apr-19 15:30N 34°09' E 134°44'612.9
2018-Apr-19 15:00N 34°14' E 134°39'612.6
2018-Apr-19 14:30N 34°17' E 134°33'612.6
2018-Apr-19 14:00N 34°20' E 134°26'612.5
2018-Apr-19 13:29N 34°22' E 134°19'611.3
2018-Apr-19 13:00N 34°24' E 134°12'  
2018-Apr-17 00:52N 34°22' E 134°21'513.1
2018-Apr-17 00:29N 34°20' E 134°27'713.2
2018-Apr-16 23:56N 34°17' E 134°35'613.2
2018-Apr-16 23:30N 34°13' E 134°40'713.5
2018-Apr-16 23:00N 34°08' E 134°45'612.8
2018-Apr-16 22:30N 34°04' E 134°51'612.9
2018-Apr-16 22:00N 33°59' E 134°56'612.8
2018-Apr-16 21:30N 33°53' E 135°00'17810.8
2018-Apr-16 05:06N 34°34' E 138°29'1612.3
2018-Apr-16 03:48N 34°35' E 138°49'411.8
2018-Apr-16 03:29N 34°35' E 138°53'511.1
2018-Apr-16 03:00N 34°38' E 138°59'712.0
2018-Apr-16 02:27N 34°43' E 139°04'2512.1
2018-Apr-16 00:24N 34°59' E 139°26'711.6
2018-Apr-15 23:50N 35°03' E 139°33'412.6
2018-Apr-15 23:30N 35°05' E 139°38'612.6
2018-Apr-15 23:00N 35°09' E 139°43'612.8
2018-Apr-15 22:30N 35°15' E 139°46'713.2
2018-Apr-15 22:00N 35°21' E 139°42'612.4
2018-Apr-15 21:30N 35°27' E 139°46'5 4.4
2018-Apr-15 20:21N 35°32' E 139°47'0 0.0
2018-Apr-15 18:27N 35°32' E 139°47'0 0.0
2018-Apr-15 16:33N 35°32' E 139°47'0 0.0
2018-Apr-15 16:27N 35°32' E 139°47'0 0.0
2018-Apr-15 15:45N 35°32' E 139°47'0 0.0
2018-Apr-15 15:21N 35°32' E 139°47'0 0.0
2018-Apr-15 14:27N 35°32' E 139°47'0 0.0
2018-Apr-15 13:09N 35°32' E 139°47'0 0.0
2018-Apr-15 12:45N 35°32' E 139°47'0 0.0
2018-Apr-15 12:27N 35°32' E 139°47'0 0.0
2018-Apr-15 11:57N 35°32' E 139°47'0 0.0
2018-Apr-15 10:51N 35°32' E 139°47'0 0.0
2018-Apr-15 10:21N 35°32' E 139°47'0 0.0
2018-Apr-15 09:57N 35°32' E 139°47'0 0.0
2018-Apr-15 08:45N 35°32' E 139°47'0 0.0
2018-Apr-15 08:30N 35°32' E 139°47'0 0.0
2018-Apr-15 08:00N 35°32' E 139°47'0 0.0
2018-Apr-15 07:09N 35°32' E 139°47'0 0.0
2018-Apr-15 07:00N 35°32' E 139°47'0 0.0
2018-Apr-15 05:03N 35°32' E 139°47'0 0.0
2018-Apr-15 04:57N 35°32' E 139°47'0 0.0
2018-Apr-15 04:27N 35°32' E 139°47'0 0.0
2018-Apr-15 03:45N 35°32' E 139°47'0 0.0
2018-Apr-15 03:27N 35°32' E 139°47'0 0.0
2018-Apr-15 02:51N 35°32' E 139°47'0 0.0
2018-Apr-15 02:27N 35°32' E 139°47'0 0.0
2018-Apr-15 01:39N 35°32' E 139°47'0 0.0
2018-Apr-15 01:21N 35°32' E 139°47'0 0.0
2018-Apr-15 00:57N 35°32' E 139°47'0 0.0
2018-Apr-15 00:27N 35°32' E 139°47'0 0.0
2018-Apr-14 23:45N 35°32' E 139°47'0 0.0
2018-Apr-14 21:09N 35°32' E 139°47'0 0.0
2018-Apr-14 20:51N 35°32' E 139°47'0 0.0
2018-Apr-14 20:21N 35°32' E 139°47'0 0.0
2018-Apr-14 19:51N 35°32' E 139°47'0 0.0
2018-Apr-14 19:27N 35°32' E 139°47'0 0.0
2018-Apr-14 17:03N 35°32' E 139°47'0 0.0
2018-Apr-14 16:51N 35°32' E 139°47'0 0.0
2018-Apr-14 16:15N 35°32' E 139°47'0 0.0
2018-Apr-14 15:57N 35°32' E 139°47'0 0.0
2018-Apr-14 14:45N 35°32' E 139°47'0 0.0
2018-Apr-14 14:15N 35°32' E 139°47'0 0.0
2018-Apr-14 13:39N 35°32' E 139°47'0 0.0
2018-Apr-14 13:21N 35°32' E 139°47'0 0.0
2018-Apr-14 12:51N 35°32' E 139°47'0 0.0
2018-Apr-14 11:39N 35°32' E 139°47'0 0.0
2018-Apr-14 11:21N 35°32' E 139°47'0 0.0
2018-Apr-14 09:51N 35°32' E 139°47'0 0.0
2018-Apr-14 08:51N 35°32' E 139°47'0 0.0
2018-Apr-14 08:30N 35°32' E 139°47'0 0.0
2018-Apr-14 08:00N 35°32' E 139°47'0 0.0
2018-Apr-14 07:30N 35°32' E 139°47'0 0.0
2018-Apr-14 07:00N 35°32' E 139°47'0 0.0
2018-Apr-14 06:27N 35°32' E 139°47'0 0.0
2018-Apr-14 06:00N 35°32' E 139°47'0 0.0
2018-Apr-14 05:27N 35°32' E 139°47'0 0.0
2018-Apr-14 04:51N 35°32' E 139°47'0 0.0
2018-Apr-14 04:27N 35°32' E 139°47'0 0.0
2018-Apr-14 03:51N 35°32' E 139°47'0 0.0
2018-Apr-14 03:21N 35°32' E 139°47'0 0.0
2018-Apr-14 02:33N 35°32' E 139°47'0 0.0
2018-Apr-14 02:27N 35°32' E 139°47'0 0.0
2018-Apr-14 02:00N 35°32' E 139°47'0 0.0
2018-Apr-14 01:27N 35°32' E 139°47'0 0.0
2018-Apr-14 00:57N 35°32' E 139°47'0 0.0
2018-Apr-14 00:24N 35°32' E 139°47'0 0.0
2018-Apr-14 00:00N 35°32' E 139°47'0 0.0
2018-Apr-13 23:27N 35°32' E 139°47'0 0.0
2018-Apr-13 22:57N 35°32' E 139°47'0 0.0
2018-Apr-13 21:27N 35°32' E 139°47'0 0.0
2018-Apr-13 20:57N 35°32' E 139°47'0 0.0
2018-Apr-13 19:57N 35°32' E 139°47'0 0.0
2018-Apr-13 18:27N 35°32' E 139°47'0 0.0
2018-Apr-13 17:57N 35°32' E 139°47'0 0.0
2018-Apr-13 16:45N 35°32' E 139°47'0 0.0
2018-Apr-13 16:27N 35°32' E 139°47'0 0.0
2018-Apr-13 15:57N 35°32' E 139°47'0 0.0
2018-Apr-13 15:27N 35°32' E 139°47'0 0.0
2018-Apr-13 14:21N 35°32' E 139°47'0 0.0
2018-Apr-13 13:57N 35°32' E 139°47'0 0.0
2018-Apr-13 13:09N 35°32' E 139°47'0 0.0
2018-Apr-13 12:33N 35°32' E 139°47'0 0.0
2018-Apr-13 12:09N 35°32' E 139°47'0 0.0
2018-Apr-13 11:51N 35°32' E 139°47'0 0.0
2018-Apr-13 08:45N 35°32' E 139°47'0 0.0
2018-Apr-13 08:27N 35°32' E 139°47'0 0.0
2018-Apr-13 07:51N 35°32' E 139°47'0 0.0
2018-Apr-13 06:51N 35°32' E 139°47'0 0.0
2018-Apr-13 06:00N 35°32' E 139°47'0 0.8
2018-Apr-13 05:31N 35°31' E 139°48'2 4.1
2018-Apr-13 05:01N 35°29' E 139°48'1 1.1
2018-Apr-13 04:30N 35°29' E 139°48'0 0.0
2018-Apr-13 03:57N 35°29' E 139°48'1 2.9
2018-Apr-13 03:30N 35°27' E 139°48'612.3
2018-Apr-13 03:00N 35°22' E 139°45'611.4
2018-Apr-13 02:30N 35°16' E 139°46'611.9
2018-Apr-13 02:00N 35°10' E 139°46'611.8
2018-Apr-13 01:31N 35°04' E 139°44'611.6
2018-Apr-13 00:59N 35°00' E 139°39'611.8
2018-Apr-13 00:28N 34°57' E 139°33'1513.2
2018-Apr-12 23:17N 34°48' E 139°17'513.4
2018-Apr-12 22:54N 34°45' E 139°12'613.8
2018-Apr-12 22:30N 34°42' E 139°07'713.2
2018-Apr-12 21:57N 34°37' E 138°60'813.8
2018-Apr-12 21:23N 34°34' E 138°51'613.3
2018-Apr-12 20:55N 34°34' E 138°43'513.1
2018-Apr-12 20:30N 34°33' E 138°37'713.2
2018-Apr-12 20:00N 34°33' E 138°29'612.8
2018-Apr-12 19:30N 34°33' E 138°21'612.9
2018-Apr-12 19:00N 34°33' E 138°13'713.4
2018-Apr-12 18:29N 34°32' E 138°05'15711.0
2018-Apr-12 04:08N 33°44' E 135°04'312.9
2018-Apr-12 03:56N 33°46' E 135°02'712.6
2018-Apr-12 03:22N 33°50' E 134°55'612.8
2018-Apr-12 02:55N 33°54' E 134°49'513.0
2018-Apr-12 02:30N 33°57' E 134°45'713.0
2018-Apr-12 01:59N 34°01' E 134°38'1 1.7
2018-Apr-12 01:24N 34°02' E 134°37'0 0.1
2018-Apr-12 01:00N 34°02' E 134°37'0 0.0
2018-Apr-12 00:30N 34°02' E 134°37'0 0.0
2018-Apr-11 23:48N 34°02' E 134°37'0 0.2
2018-Apr-11 23:30N 34°02' E 134°37'0 0.0
2018-Apr-11 22:42N 34°02' E 134°37'0 0.0
2018-Apr-11 22:30N 34°02' E 134°37'0 0.0
2018-Apr-11 21:48N 34°02' E 134°37'0 0.0
2018-Apr-11 21:30N 34°02' E 134°37'0 0.1
2018-Apr-11 20:54N 34°02' E 134°37'0 0.1
2018-Apr-11 20:18N 34°02' E 134°37'0 0.0
2018-Apr-11 20:00N 34°02' E 134°37'0 0.0
2018-Apr-11 19:30N 34°02' E 134°37'  

Dump ship's entire track history